Strona główna
METAR-TAF:

METAR-TAF

Lotnisko :

Tak, Tajlandia

Szerokość geograficzna: 16-53N, Długość geograficzna: 099-09E, wysokość: 121 m

METAR: brakujący

czas: 11:04 (04:04 UTC)

Prognoza

Raport powstał 5 godziny i 4 minut temu, godzina 23:00 UTC
Prognoza ważna od 12 godzina 00 UTC do 12 godzina 24 UTC
Wiatr 4 kt od wschodnio-północny wschód
Widzialność: 5000 m
zamglenie
Stopniowe zmiany
od 12 godzina 01 UTC do 12 godzina 03 UTC
Widzialność: 7000 m
Mało chmury na wysokości 2500 ft

TAF: VTPT 112300Z 1200/1224 06004KT 5000 BR NSC BECMG 1201/1203 7000 NSW FEW025

Obserwacja i prognoza pogody dla ponad 4000 lotnisk (raport METAR i TAF).

Dostępne stacje oznaczono żółtymi i czerwonymi punktami na mapie.

Najedź kursorem aby zobaczyć nazwę stacji.

Kliknij aby zobaczyć obserwacje i prognozy pogody.

Aby zmienić mapę: kliknij na zielony przycisk z czarnym krzyżykiem, aby powiększyć; na zielony przycisk z myślnikiem, aby pomniejszyć; na zielone strzałki, aby przejść do map sąsiednich.


METAR-TAF: